createdAt,value
2023-03-14T00:00:11.682Z,9.40
2023-03-14T00:02:39.858Z,9.40
2023-03-14T00:05:10.693Z,9.40
2023-03-14T00:07:39.869Z,9.40
2023-03-14T00:10:10.470Z,9.50
2023-03-14T00:12:38.602Z,9.50
2023-03-14T00:15:08.033Z,9.50
2023-03-14T00:17:37.468Z,9.60
2023-03-14T00:20:09.308Z,9.60
2023-03-14T00:22:39.477Z,9.60
2023-03-14T00:25:09.294Z,9.60
2023-03-14T00:27:37.389Z,9.60
2023-03-14T00:30:06.163Z,9.60
2023-03-14T00:32:34.167Z,9.60
2023-03-14T00:35:02.323Z,9.60
2023-03-14T00:37:30.392Z,9.60
2023-03-14T00:39:59.704Z,9.50
2023-03-14T00:42:28.315Z,9.50
2023-03-14T00:44:56.279Z,9.50
2023-03-14T00:47:24.217Z,9.40
2023-03-14T00:49:52.162Z,9.40
2023-03-14T00:52:20.131Z,9.30
2023-03-14T00:54:48.119Z,9.30
2023-03-14T00:57:17.423Z,9.30
2023-03-14T00:59:45.381Z,9.30
2023-03-14T01:02:13.405Z,9.40
2023-03-14T01:04:44.132Z,9.40
2023-03-14T01:07:12.088Z,9.40
2023-03-14T01:09:40.048Z,9.40
2023-03-14T01:12:08.083Z,9.40
2023-03-14T01:14:37.759Z,9.40
2023-03-14T01:17:05.731Z,9.40
2023-03-14T01:19:33.765Z,9.40
2023-03-14T01:22:01.831Z,9.50
2023-03-14T01:24:30.709Z,9.50
2023-03-14T01:26:58.667Z,9.50
2023-03-14T01:29:26.831Z,9.50
2023-03-14T01:31:56.163Z,9.50
2023-03-14T01:34:24.203Z,9.50
2023-03-14T01:36:52.134Z,9.50
2023-03-14T01:39:20.058Z,9.50
2023-03-14T01:41:48.021Z,9.50
2023-03-14T01:44:16.087Z,9.50
2023-03-14T01:46:45.212Z,9.50
2023-03-14T01:49:22.368Z,9.50
2023-03-14T01:51:56.130Z,9.50
2023-03-14T01:54:30.122Z,9.40
2023-03-14T01:57:04.052Z,9.40
2023-03-14T01:59:33.681Z,9.40
2023-03-14T02:02:02.505Z,9.40
2023-03-14T02:04:37.014Z,9.50
2023-03-14T02:07:10.555Z,9.50
2023-03-14T02:09:40.853Z,9.60
2023-03-14T02:12:10.699Z,9.60
2023-03-14T02:14:39.390Z,9.60
2023-03-14T02:17:08.779Z,9.60
2023-03-14T02:19:57.351Z,9.60
2023-03-14T02:22:25.351Z,9.60
2023-03-14T02:25:02.982Z,9.60
2023-03-14T02:27:32.738Z,9.60
2023-03-14T02:30:03.755Z,9.60
2023-03-14T02:32:34.690Z,9.60
2023-03-14T02:35:06.886Z,9.60
2023-03-14T02:37:39.225Z,9.60
2023-03-14T02:40:08.638Z,9.60
2023-03-14T02:42:38.106Z,9.50
2023-03-14T02:45:44.488Z,9.50
2023-03-14T02:48:17.494Z,9.40
2023-03-14T02:50:47.372Z,9.40
2023-03-14T02:53:19.208Z,9.40
2023-03-14T02:55:48.321Z,9.30
2023-03-14T02:58:17.964Z,9.30
2023-03-14T03:00:46.159Z,9.30
2023-03-14T03:03:14.536Z,9.30
2023-03-14T03:05:43.363Z,9.30
2023-03-14T03:08:11.903Z,9.30
2023-03-14T03:10:39.861Z,9.30
2023-03-14T03:13:07.814Z,9.20
2023-03-14T03:15:37.163Z,9.20
2023-03-14T03:18:05.356Z,9.10
2023-03-14T03:20:33.283Z,9.10
2023-03-14T03:23:01.612Z,9.10
2023-03-14T03:25:30.036Z,9.10
2023-03-14T03:27:58.088Z,9.10
2023-03-14T03:30:26.222Z,9.20
2023-03-14T03:32:55.648Z,9.20
2023-03-14T03:35:23.588Z,9.20
2023-03-14T03:37:51.558Z,9.20
2023-03-14T03:40:19.664Z,9.20
2023-03-14T03:42:48.208Z,9.20
2023-03-14T03:45:16.239Z,9.20
2023-03-14T03:47:44.197Z,9.20
2023-03-14T03:50:13.825Z,9.20
2023-03-14T03:52:41.842Z,9.20
2023-03-14T03:55:10.647Z,9.20
2023-03-14T03:57:38.670Z,9.20
2023-03-14T04:00:10.262Z,9.20
2023-03-14T04:02:38.489Z,9.10
2023-03-14T04:05:06.986Z,9.20
2023-03-14T04:07:36.457Z,9.20
2023-03-14T04:10:04.848Z,9.20
2023-03-14T04:12:32.825Z,9.20
2023-03-14T04:15:00.764Z,9.20
2023-03-14T04:17:28.689Z,9.10
2023-03-14T04:19:56.638Z,9.10
2023-03-14T04:22:24.597Z,9.10
2023-03-14T04:24:53.988Z,9.10
2023-03-14T04:27:22.084Z,9.10
2023-03-14T04:29:50.056Z,9.10
2023-03-14T04:32:17.992Z,9.10
2023-03-14T04:34:45.936Z,9.00
2023-03-14T04:37:13.885Z,9.00
2023-03-14T04:39:41.877Z,8.90
2023-03-14T04:42:11.229Z,8.90
2023-03-14T04:44:39.210Z,8.80
2023-03-14T04:47:07.211Z,8.80
2023-03-14T04:49:35.394Z,8.80
2023-03-14T04:52:03.337Z,8.80
2023-03-14T04:54:31.390Z,8.80
2023-03-14T04:56:59.333Z,8.80
2023-03-14T04:59:28.912Z,8.90
2023-03-14T05:01:56.927Z,8.90
2023-03-14T05:04:24.892Z,8.90
2023-03-14T05:06:52.830Z,8.90
2023-03-14T05:09:20.792Z,8.80
2023-03-14T05:11:48.854Z,8.80
2023-03-14T05:14:16.811Z,8.80
2023-03-14T05:16:46.096Z,8.80
2023-03-14T05:19:14.183Z,8.90
2023-03-14T05:21:42.723Z,8.90
2023-03-14T05:24:10.683Z,8.90
2023-03-14T05:26:38.634Z,9.00
2023-03-14T05:29:06.670Z,9.00
2023-03-14T05:31:34.668Z,9.00
2023-03-14T05:34:04.032Z,8.90
2023-03-14T05:36:32.046Z,9.00
2023-03-14T05:39:00.009Z,9.00
2023-03-14T05:41:27.951Z,9.00
2023-03-14T05:43:55.906Z,9.00
2023-03-14T05:46:23.934Z,9.00
2023-03-14T05:48:51.960Z,9.00
2023-03-14T05:51:21.260Z,9.10
2023-03-14T05:53:49.209Z,9.00
2023-03-14T05:56:17.376Z,9.00
2023-03-14T05:58:45.332Z,9.00
2023-03-14T06:01:13.311Z,9.00
2023-03-14T06:03:41.297Z,9.00
2023-03-14T06:06:09.698Z,9.00
2023-03-14T06:08:39.032Z,9.00
2023-03-14T06:11:07.574Z,9.10
2023-03-14T06:13:35.534Z,9.00
2023-03-14T06:16:03.492Z,9.10
2023-03-14T06:18:31.633Z,9.00
2023-03-14T06:20:59.580Z,9.00
2023-03-14T06:23:27.693Z,9.10
2023-03-14T06:25:56.964Z,9.20
2023-03-14T06:28:26.224Z,9.10
2023-03-14T06:30:54.287Z,9.20
2023-03-14T06:33:22.363Z,9.20
2023-03-14T06:35:50.387Z,9.20
2023-03-14T06:38:18.367Z,9.20
2023-03-14T06:40:46.342Z,9.20
2023-03-14T06:43:15.606Z,9.30
2023-03-14T06:45:43.639Z,9.30
2023-03-14T06:48:11.628Z,9.30
2023-03-14T06:50:39.596Z,9.30
2023-03-14T06:53:07.599Z,9.30
2023-03-14T06:55:35.588Z,9.40
2023-03-14T06:58:03.755Z,9.40
2023-03-14T07:00:33.120Z,9.40
2023-03-14T07:03:01.084Z,9.40
2023-03-14T07:05:29.168Z,9.40
2023-03-14T07:07:57.117Z,9.40
2023-03-14T07:10:25.341Z,9.40
2023-03-14T07:12:53.886Z,9.40
2023-03-14T07:15:21.979Z,9.40
2023-03-14T07:17:51.492Z,9.50
2023-03-14T07:20:19.784Z,9.50
2023-03-14T07:22:50.026Z,9.50
2023-03-14T07:25:18.732Z,9.50
2023-03-14T07:27:47.785Z,9.50
2023-03-14T07:30:16.135Z,9.40
2023-03-14T07:32:44.268Z,9.40
2023-03-14T07:35:13.638Z,9.40
2023-03-14T07:37:41.572Z,9.50
2023-03-14T07:40:12.697Z,9.50
2023-03-14T07:42:40.629Z,9.60
2023-03-14T07:45:09.996Z,9.60
2023-03-14T07:47:38.228Z,9.70
2023-03-14T07:50:07.064Z,9.70
2023-03-14T07:52:36.377Z,9.70
2023-03-14T07:55:04.455Z,9.80
2023-03-14T07:57:32.442Z,9.80
2023-03-14T08:00:00.403Z,9.80
2023-03-14T08:02:28.496Z,9.90
2023-03-14T08:04:56.459Z,10.00
2023-03-14T08:07:24.396Z,10.10
2023-03-14T08:09:53.736Z,10.10
2023-03-14T08:12:21.677Z,10.10
2023-03-14T08:14:49.629Z,10.10
2023-03-14T08:17:17.564Z,10.10
2023-03-14T08:19:45.533Z,10.10
2023-03-14T08:22:13.503Z,10.10
2023-03-14T08:24:42.166Z,10.20
2023-03-14T08:27:11.501Z,10.20
2023-03-14T08:29:39.504Z,10.20
2023-03-14T08:32:07.871Z,10.20
2023-03-14T08:34:36.040Z,10.10
2023-03-14T08:37:06.669Z,10.10
2023-03-14T08:39:39.049Z,10.00
2023-03-14T08:42:07.063Z,10.00
2023-03-14T08:44:36.448Z,10.00
2023-03-14T08:47:04.575Z,10.00
2023-03-14T08:49:32.790Z,10.10
2023-03-14T08:52:00.858Z,10.10
2023-03-14T08:54:28.820Z,10.10
2023-03-14T08:56:56.784Z,10.10
2023-03-14T08:59:25.304Z,10.30
2023-03-14T09:01:55.514Z,10.30
2023-03-14T09:04:23.831Z,10.40
2023-03-14T09:06:51.923Z,10.40
2023-03-14T09:09:19.963Z,10.50
2023-03-14T09:11:47.911Z,10.60
2023-03-14T09:14:16.150Z,10.70
2023-03-14T09:16:44.190Z,10.80
2023-03-14T09:19:13.596Z,10.90
2023-03-14T09:21:41.558Z,10.90
2023-03-14T09:24:09.632Z,10.90
2023-03-14T09:26:37.588Z,10.90
2023-03-14T09:29:05.605Z,10.90
2023-03-14T09:31:33.674Z,10.90
2023-03-14T09:34:01.651Z,11.00
2023-03-14T09:36:30.983Z,11.10
2023-03-14T09:38:58.997Z,11.20
2023-03-14T09:41:29.745Z,11.30
2023-03-14T09:44:06.144Z,11.40
2023-03-14T09:46:37.626Z,11.50
2023-03-14T09:49:11.194Z,11.50
2023-03-14T09:51:41.847Z,11.60
2023-03-14T09:54:28.945Z,11.70
2023-03-14T09:56:56.908Z,11.60
2023-03-14T09:59:25.168Z,11.60
2023-03-14T10:01:53.984Z,11.60
2023-03-14T10:04:25.211Z,11.40
2023-03-14T10:06:54.562Z,11.40
2023-03-14T10:09:26.322Z,11.40
2023-03-14T10:11:57.202Z,11.50
2023-03-14T10:14:37.132Z,11.40
2023-03-14T10:17:10.914Z,11.40
2023-03-14T10:19:39.485Z,11.50
2023-03-14T10:22:16.330Z,11.60
2023-03-14T10:24:53.315Z,11.80
2023-03-14T10:27:24.240Z,11.80
2023-03-14T10:29:59.605Z,12.00
2023-03-14T10:32:35.162Z,12.20
2023-03-14T10:35:22.817Z,12.30
2023-03-14T10:37:55.404Z,12.30
2023-03-14T10:40:28.190Z,12.30
2023-03-14T10:42:56.511Z,12.30
2023-03-14T10:45:38.837Z,12.40
2023-03-14T10:48:22.112Z,12.50
2023-03-14T10:50:51.723Z,12.40
2023-03-14T10:53:21.106Z,12.30
2023-03-14T10:55:49.712Z,12.10
2023-03-14T10:58:23.077Z,12.00
2023-03-14T11:00:56.114Z,12.00
2023-03-14T11:03:25.553Z,11.80
2023-03-14T11:05:58.215Z,11.80
2023-03-14T11:08:33.812Z,11.80
2023-03-14T11:11:12.070Z,11.80
2023-03-14T11:13:46.072Z,11.70
2023-03-14T11:16:23.439Z,11.80
2023-03-14T11:19:10.119Z,11.70
2023-03-14T11:21:48.997Z,11.60
2023-03-14T11:24:30.162Z,11.50
2023-03-14T11:27:07.933Z,11.50
2023-03-14T11:29:41.178Z,11.50
2023-03-14T11:32:15.963Z,11.40
2023-03-14T11:34:51.886Z,11.50
2023-03-14T11:37:25.794Z,11.60
2023-03-14T11:40:02.708Z,11.60
2023-03-14T11:42:32.483Z,11.60
2023-03-14T11:45:02.188Z,11.60
2023-03-14T11:47:34.339Z,11.60
2023-03-14T11:50:06.405Z,11.40
2023-03-14T11:52:38.256Z,11.30
2023-03-14T11:55:15.088Z,11.30
2023-03-14T11:57:43.134Z,11.20
2023-03-14T12:00:18.727Z,11.20
2023-03-14T12:02:54.298Z,11.20
2023-03-14T12:05:39.783Z,11.30
2023-03-14T12:08:35.141Z,11.30
2023-03-14T12:11:11.721Z,11.30
2023-03-14T12:13:41.669Z,11.30
2023-03-14T12:16:22.238Z,11.10
2023-03-14T12:18:50.376Z,11.10
2023-03-14T12:21:18.838Z,11.00
2023-03-14T12:23:51.252Z,11.00
2023-03-14T12:26:23.117Z,11.00
2023-03-14T12:28:53.262Z,11.00
2023-03-14T12:31:48.554Z,11.10
2023-03-14T12:34:31.062Z,11.10
2023-03-14T12:37:23.877Z,10.90
2023-03-14T12:40:13.931Z,10.60
2023-03-14T12:42:53.888Z,10.50
2023-03-14T12:45:27.788Z,10.60
2023-03-14T12:48:05.865Z,10.40
2023-03-14T12:50:38.036Z,10.30
2023-03-14T12:53:41.036Z,10.10
2023-03-14T12:56:21.057Z,9.90
2023-03-14T12:59:04.985Z,9.80
2023-03-14T13:01:36.157Z,9.80
2023-03-14T13:04:11.208Z,9.70
2023-03-14T13:06:54.969Z,9.70
2023-03-14T13:10:02.053Z,9.90
2023-03-14T13:12:34.242Z,9.90
2023-03-14T13:15:06.000Z,9.80
2023-03-14T13:17:37.615Z,9.80
2023-03-14T13:20:15.082Z,9.90
2023-03-14T13:22:49.584Z,9.70
2023-03-14T13:25:19.473Z,9.40
2023-03-14T13:27:47.626Z,9.30
2023-03-14T13:30:24.177Z,9.20
2023-03-14T13:32:54.022Z,9.20
2023-03-14T13:35:25.932Z,9.30
2023-03-14T13:38:10.609Z,9.20
2023-03-14T13:40:39.817Z,9.40
2023-03-14T13:43:16.822Z,9.40
2023-03-14T13:45:52.740Z,9.30
2023-03-14T13:48:21.808Z,9.20
2023-03-14T13:50:55.805Z,8.90
2023-03-14T13:53:25.989Z,8.80
2023-03-14T13:55:54.766Z,8.80
2023-03-14T13:58:25.777Z,8.60
2023-03-14T14:01:01.683Z,8.50
2023-03-14T14:03:32.261Z,8.50
2023-03-14T14:06:00.592Z,8.20
2023-03-14T14:08:29.049Z,7.80
2023-03-14T14:11:00.579Z,7.40
2023-03-14T14:13:30.212Z,7.50
2023-03-14T14:16:02.774Z,7.60
2023-03-14T14:18:32.609Z,7.60
2023-03-14T14:21:01.268Z,7.70
2023-03-14T14:23:32.637Z,7.80
2023-03-14T14:26:01.522Z,7.90
2023-03-14T14:28:31.131Z,7.90
2023-03-14T14:31:20.862Z,7.90
2023-03-14T14:33:56.830Z,7.90
2023-03-14T14:36:27.918Z,8.00
2023-03-14T14:38:59.447Z,8.00
2023-03-14T14:41:32.581Z,8.10
2023-03-14T14:44:01.652Z,7.90
2023-03-14T14:46:34.647Z,8.10
2023-03-14T14:49:08.218Z,8.30
2023-03-14T14:51:43.327Z,8.40
2023-03-14T14:54:14.883Z,8.50
2023-03-14T14:56:48.190Z,8.60
2023-03-14T14:59:25.386Z,8.50
2023-03-14T15:01:58.320Z,8.50
2023-03-14T15:04:26.801Z,8.40
2023-03-14T15:06:55.143Z,8.30
2023-03-14T15:09:23.151Z,8.30
2023-03-14T15:11:51.455Z,8.30
2023-03-14T15:14:19.413Z,8.20
2023-03-14T15:16:47.478Z,8.30
2023-03-14T15:19:25.527Z,8.30
2023-03-14T15:21:54.454Z,8.20
2023-03-14T15:24:22.559Z,8.20
2023-03-14T15:26:50.585Z,8.20
2023-03-14T15:29:18.660Z,8.20
2023-03-14T15:31:46.716Z,8.10
2023-03-14T15:34:14.695Z,8.00
2023-03-14T15:36:44.088Z,8.00
2023-03-14T15:39:13.130Z,7.90
2023-03-14T15:41:41.202Z,7.80
2023-03-14T15:44:09.137Z,7.40
2023-03-14T15:46:37.184Z,7.10
2023-03-14T15:49:05.133Z,6.90
2023-03-14T15:51:33.240Z,6.80
2023-03-14T15:54:02.568Z,6.80
2023-03-14T15:56:32.192Z,6.90
2023-03-14T15:59:00.746Z,6.80
2023-03-14T16:01:28.737Z,6.90
2023-03-14T16:03:56.799Z,7.10
2023-03-14T16:06:24.863Z,7.10
2023-03-14T16:08:52.907Z,7.00
2023-03-14T16:11:23.096Z,6.90
2023-03-14T16:13:51.300Z,6.90
2023-03-14T16:16:19.502Z,6.90
2023-03-14T16:18:47.548Z,6.80
2023-03-14T16:21:17.224Z,6.90
2023-03-14T16:23:45.838Z,6.80
2023-03-14T16:26:15.687Z,6.80
2023-03-14T16:28:46.403Z,6.70
2023-03-14T16:31:17.415Z,6.60
2023-03-14T16:33:45.666Z,6.70
2023-03-14T16:36:15.579Z,6.70
2023-03-14T16:38:46.888Z,6.70
2023-03-14T16:41:16.462Z,6.70
2023-03-14T16:43:46.440Z,6.70
2023-03-14T16:46:17.717Z,6.80
2023-03-14T16:48:46.774Z,6.80
2023-03-14T16:51:17.173Z,6.80
2023-03-14T16:53:45.898Z,6.60
2023-03-14T16:56:14.189Z,6.60
2023-03-14T16:58:42.407Z,6.60
2023-03-14T17:01:14.191Z,6.70
2023-03-14T17:03:43.611Z,6.70
2023-03-14T17:06:13.372Z,6.70
2023-03-14T17:08:42.178Z,6.70
2023-03-14T17:11:10.541Z,6.70
2023-03-14T17:13:39.212Z,6.60
2023-03-14T17:16:07.935Z,6.70
2023-03-14T17:18:38.812Z,6.70
2023-03-14T17:21:07.717Z,6.60
2023-03-14T17:23:36.658Z,6.60
2023-03-14T17:26:04.849Z,6.60
2023-03-14T17:28:32.870Z,6.60
2023-03-14T17:31:06.930Z,6.50
2023-03-14T17:33:35.249Z,6.50
2023-03-14T17:36:05.543Z,6.40
2023-03-14T17:38:35.116Z,6.30
2023-03-14T17:41:03.080Z,6.10
2023-03-14T17:43:31.654Z,6.10
2023-03-14T17:46:00.347Z,6.00
2023-03-14T17:48:28.677Z,5.90
2023-03-14T17:50:59.523Z,5.90
2023-03-14T17:53:31.007Z,5.80
2023-03-14T17:55:59.462Z,5.80
2023-03-14T17:58:28.272Z,5.70
2023-03-14T18:00:56.777Z,5.80
2023-03-14T18:03:24.913Z,5.80
2023-03-14T18:05:52.871Z,5.80
2023-03-14T18:08:20.877Z,5.80
2023-03-14T18:10:54.892Z,5.80
2023-03-14T18:13:22.996Z,5.80
2023-03-14T18:15:52.162Z,5.80
2023-03-14T18:18:20.982Z,5.80
2023-03-14T18:20:52.534Z,5.80
2023-03-14T18:23:21.365Z,5.80
2023-03-14T18:25:51.528Z,5.70
2023-03-14T18:28:21.069Z,5.70
2023-03-14T18:30:52.479Z,5.60
2023-03-14T18:33:22.076Z,5.60
2023-03-14T18:35:52.195Z,5.60
2023-03-14T18:38:20.636Z,5.50
2023-03-14T18:40:49.942Z,5.50
2023-03-14T18:43:17.906Z,5.40
2023-03-14T18:45:45.877Z,5.50
2023-03-14T18:48:13.843Z,5.50
2023-03-14T18:50:42.876Z,5.50
2023-03-14T18:53:10.876Z,5.50
2023-03-14T18:55:38.803Z,5.50
2023-03-14T18:58:08.132Z,5.40
2023-03-14T19:00:37.269Z,5.40
2023-03-14T19:03:05.561Z,5.40
2023-03-14T19:05:33.506Z,5.30
2023-03-14T19:08:02.881Z,5.40
2023-03-14T19:10:33.396Z,5.30
2023-03-14T19:13:01.363Z,5.30
2023-03-14T19:15:30.685Z,5.30
2023-03-14T19:17:58.662Z,5.30
2023-03-14T19:20:26.915Z,5.20
2023-03-14T19:23:00.272Z,5.20
2023-03-14T19:25:28.240Z,5.20
2023-03-14T19:27:56.273Z,5.20
2023-03-14T19:30:24.293Z,5.10
2023-03-14T19:32:54.079Z,5.10
2023-03-14T19:35:22.083Z,5.10
2023-03-14T19:37:50.056Z,5.10
2023-03-14T19:40:18.295Z,5.10
2023-03-14T19:42:46.258Z,5.10
2023-03-14T19:45:14.218Z,5.10
2023-03-14T19:47:42.146Z,5.00
2023-03-14T19:50:13.116Z,5.00
2023-03-14T19:52:44.641Z,5.00
2023-03-14T19:55:13.209Z,4.90
2023-03-14T19:57:42.090Z,4.80
2023-03-14T20:00:16.828Z,4.80
2023-03-14T20:02:45.115Z,4.90
2023-03-14T20:05:14.719Z,4.90
2023-03-14T20:07:42.856Z,4.80
2023-03-14T20:10:12.278Z,4.80
2023-03-14T20:12:40.644Z,4.80
2023-03-14T20:15:10.031Z,4.80
2023-03-14T20:17:38.645Z,4.70
2023-03-14T20:20:08.169Z,4.70
2023-03-14T20:22:38.391Z,4.70
2023-03-14T20:25:08.078Z,4.70
2023-03-14T20:27:36.483Z,4.70
2023-03-14T20:30:07.796Z,4.60
2023-03-14T20:32:35.791Z,4.60
2023-03-14T20:35:03.798Z,4.60
2023-03-14T20:37:32.674Z,4.50
2023-03-14T20:40:01.997Z,4.50
2023-03-14T20:42:29.970Z,4.50
2023-03-14T20:44:57.920Z,4.50
2023-03-14T20:47:25.869Z,4.40
2023-03-14T20:49:53.840Z,4.40
2023-03-14T20:52:23.033Z,4.40
2023-03-14T20:54:50.988Z,4.40
2023-03-14T20:57:20.433Z,4.40
2023-03-14T20:59:48.442Z,4.30
2023-03-14T21:02:16.376Z,4.30
2023-03-14T21:04:44.567Z,4.40
2023-03-14T21:07:13.311Z,4.30
2023-03-14T21:09:41.297Z,4.30
2023-03-14T21:12:09.307Z,4.30
2023-03-14T21:14:38.627Z,4.30
2023-03-14T21:17:06.860Z,4.30
2023-03-14T21:19:34.841Z,4.40
2023-03-14T21:22:04.984Z,4.30
2023-03-14T21:24:34.361Z,4.30
2023-03-14T21:27:02.694Z,4.40
2023-03-14T21:29:30.686Z,4.30
2023-03-14T21:31:59.966Z,4.30
2023-03-14T21:34:28.001Z,4.30
2023-03-14T21:36:56.453Z,4.30
2023-03-14T21:39:24.573Z,4.30
2023-03-14T21:41:52.493Z,4.30
2023-03-14T21:44:21.742Z,4.30
2023-03-14T21:46:50.010Z,4.30
2023-03-14T21:49:19.866Z,4.30
2023-03-14T21:51:47.928Z,4.30
2023-03-14T21:54:17.527Z,4.20
2023-03-14T21:56:45.582Z,4.20
2023-03-14T21:59:14.682Z,4.20
2023-03-14T22:01:43.258Z,4.20
2023-03-14T22:04:11.319Z,4.20
2023-03-14T22:06:40.606Z,4.20
2023-03-14T22:09:08.696Z,4.20
2023-03-14T22:11:36.692Z,4.10
2023-03-14T22:14:04.870Z,4.10
2023-03-14T22:16:32.858Z,4.10
2023-03-14T22:19:00.796Z,4.10
2023-03-14T22:21:28.748Z,4.10
2023-03-14T22:23:58.074Z,4.10
2023-03-14T22:26:26.024Z,4.00
2023-03-14T22:28:53.959Z,4.00
2023-03-14T22:31:22.018Z,4.00
2023-03-14T22:33:49.997Z,4.00
2023-03-14T22:36:18.014Z,3.90
2023-03-14T22:38:45.938Z,3.90
2023-03-14T22:41:15.305Z,3.80
2023-03-14T22:43:43.281Z,3.80
2023-03-14T22:46:11.727Z,3.80
2023-03-14T22:48:39.710Z,3.80
2023-03-14T22:51:08.730Z,3.80
2023-03-14T22:53:37.158Z,3.70
2023-03-14T22:56:07.166Z,3.70
2023-03-14T22:58:37.201Z,3.60
2023-03-14T23:01:05.951Z,3.60
2023-03-14T23:03:34.170Z,3.60
2023-03-14T23:06:02.143Z,3.60
2023-03-14T23:08:33.109Z,3.60
2023-03-14T23:11:02.388Z,3.60
2023-03-14T23:13:31.389Z,3.50
2023-03-14T23:16:01.238Z,3.50
2023-03-14T23:18:29.833Z,3.50
2023-03-14T23:21:08.062Z,3.40
2023-03-14T23:23:36.159Z,3.40
2023-03-14T23:26:04.678Z,3.30
2023-03-14T23:28:32.702Z,3.30
2023-03-14T23:31:02.440Z,3.20
2023-03-14T23:33:31.353Z,3.20
2023-03-14T23:35:59.428Z,3.10
2023-03-14T23:38:28.135Z,3.10
2023-03-14T23:40:56.120Z,3.10
2023-03-14T23:43:24.260Z,3.00
2023-03-14T23:45:54.843Z,3.00
2023-03-14T23:48:26.045Z,2.90
2023-03-14T23:50:56.185Z,2.90
2023-03-14T23:53:24.147Z,2.80
2023-03-14T23:55:52.146Z,2.80
2023-03-14T23:58:21.489Z,2.70
